createdAt,value
2018-07-17T00:00:51.590Z,94105.06
2018-07-17T00:15:52.831Z,94098.36
2018-07-17T00:30:50.794Z,94096.65
2018-07-17T00:45:51.151Z,94096.95
2018-07-17T01:00:50.651Z,94094.59
2018-07-17T01:15:51.227Z,94104.73
2018-07-17T01:30:51.704Z,94093.09
2018-07-17T01:45:50.063Z,94072.65
2018-07-17T02:00:50.468Z,94048.16
2018-07-17T02:15:50.428Z,94040.05
2018-07-17T02:30:50.508Z,94048.55
2018-07-17T02:45:50.913Z,94044.88
2018-07-17T03:00:50.540Z,94023.78
2018-07-17T03:15:50.940Z,94025.05
2018-07-17T03:30:50.791Z,94024.11
2018-07-17T03:45:52.361Z,94017.14
2018-07-17T04:00:50.453Z,94019.89
2018-07-17T04:15:50.450Z,94028.83
2018-07-17T04:30:50.402Z,94036.09
2018-07-17T04:45:50.911Z,94020.88
2018-07-17T05:00:50.894Z,94037.48
2018-07-17T05:15:50.869Z,94032.34
2018-07-17T05:30:51.844Z,94026.91
2018-07-17T05:45:51.402Z,94016.36
2018-07-17T06:00:53.260Z,93988.96
2018-07-17T06:15:51.194Z,93980.75
2018-07-17T06:30:53.235Z,93989.88
2018-07-17T06:45:50.751Z,94001.73
2018-07-17T07:00:51.738Z,94016.26
2018-07-17T07:15:50.577Z,94024.59
2018-07-17T07:30:50.605Z,94026.80
2018-07-17T07:45:51.025Z,94050.97
2018-07-17T08:00:52.805Z,94140.03
2018-07-17T08:15:50.868Z,94032.83
2018-07-17T08:30:50.730Z,94077.13
2018-07-17T08:45:52.189Z,94066.10
2018-07-17T09:00:50.140Z,94032.00
2018-07-17T09:15:51.349Z,94014.23
2018-07-17T09:30:56.561Z,94016.94
2018-07-17T09:45:50.997Z,94006.48
2018-07-17T10:00:55.963Z,93997.75
2018-07-17T10:15:51.017Z,93991.45
2018-07-17T10:30:50.914Z,93966.70
2018-07-17T10:45:51.109Z,93962.09
2018-07-17T11:00:53.236Z,93951.30
2018-07-17T11:15:51.149Z,93944.56
2018-07-17T11:30:54.748Z,93918.59
2018-07-17T11:45:50.497Z,93893.50
2018-07-17T12:00:50.493Z,93888.86
2018-07-17T12:15:50.528Z,93902.29
2018-07-17T12:30:50.543Z,93903.99
2018-07-17T12:45:50.874Z,93876.02
2018-07-17T13:00:50.849Z,93879.66
2018-07-17T13:15:50.894Z,93862.48
2018-07-17T13:30:50.835Z,93855.11
2018-07-17T13:45:50.293Z,93840.48
2018-07-17T14:00:51.309Z,93824.98
2018-07-17T14:15:53.286Z,93826.52
2018-07-17T14:30:51.804Z,93839.51
2018-07-17T14:45:50.705Z,93834.41
2018-07-17T15:00:50.673Z,93836.45
2018-07-17T15:15:50.288Z,93830.99
2018-07-17T15:30:50.719Z,93828.05
2018-07-17T15:45:53.142Z,93828.76
2018-07-17T16:00:51.082Z,93842.97
2018-07-17T16:15:50.974Z,93845.44
2018-07-17T16:30:51.066Z,93861.53
2018-07-17T16:45:50.269Z,93868.70
2018-07-17T17:00:50.392Z,93880.81
2018-07-17T17:15:50.144Z,93877.39
2018-07-17T17:30:51.198Z,93885.73
2018-07-17T17:45:50.638Z,93897.28
2018-07-17T18:00:50.781Z,93900.42
2018-07-17T18:15:50.577Z,93921.27
2018-07-17T18:30:51.282Z,93923.22
2018-07-17T18:45:51.098Z,93952.48
2018-07-17T19:00:57.597Z,93963.94
2018-07-17T19:15:50.933Z,93982.00
2018-07-17T19:30:52.973Z,93970.69
2018-07-17T19:45:50.377Z,93979.81
2018-07-17T20:00:50.484Z,93975.17
2018-07-17T20:15:50.404Z,93979.66
2018-07-17T20:30:52.297Z,93977.49
2018-07-17T20:45:50.872Z,93974.20
2018-07-17T21:00:50.828Z,93971.28
2018-07-17T21:15:50.243Z,93984.41
2018-07-17T21:30:50.705Z,93991.59
2018-07-17T21:45:50.203Z,93988.50
2018-07-17T22:00:52.986Z,94009.94
2018-07-17T22:15:50.135Z,94009.50
2018-07-17T22:30:49.184Z,94017.58
2018-07-17T22:45:50.579Z,94021.90
2018-07-17T23:00:50.868Z,94031.91
2018-07-17T23:15:50.538Z,94035.23
2018-07-17T23:30:52.539Z,94034.03
2018-07-17T23:45:50.991Z,94032.61
